createdAt,value
2022-07-25T00:00:10.976Z,0.00
2022-07-25T00:05:18.104Z,0.00
2022-07-25T00:10:11.233Z,0.00
2022-07-25T00:15:11.241Z,0.00
2022-07-25T00:20:11.311Z,0.00
2022-07-25T00:25:11.403Z,0.00
2022-07-25T00:30:11.497Z,0.00
2022-07-25T00:35:11.607Z,0.00
2022-07-25T00:40:11.737Z,0.00
2022-07-25T00:45:11.817Z,0.00
2022-07-25T00:50:11.904Z,0.00
2022-07-25T00:55:12.046Z,0.00
2022-07-25T01:00:12.084Z,0.00
2022-07-25T01:05:12.201Z,0.00
2022-07-25T01:10:12.265Z,0.00
2022-07-25T01:15:12.390Z,0.00
2022-07-25T01:20:12.485Z,0.00
2022-07-25T01:25:12.592Z,0.00
2022-07-25T01:30:12.692Z,0.00
2022-07-25T01:35:12.812Z,0.00
2022-07-25T01:40:12.889Z,0.00
2022-07-25T01:45:12.936Z,0.00
2022-07-25T01:50:13.038Z,0.00
2022-07-25T01:55:13.122Z,0.00
2022-07-25T02:00:13.205Z,0.00
2022-07-25T02:05:13.283Z,0.00
2022-07-25T02:10:13.417Z,0.00
2022-07-25T02:15:13.551Z,0.00
2022-07-25T02:20:13.629Z,0.00
2022-07-25T02:25:13.723Z,0.00
2022-07-25T02:30:13.841Z,0.00
2022-07-25T02:35:13.949Z,0.00
2022-07-25T02:40:14.054Z,0.00
2022-07-25T02:45:14.157Z,0.00
2022-07-25T02:50:14.730Z,0.00
2022-07-25T02:55:14.357Z,0.00
2022-07-25T03:00:14.475Z,0.00
2022-07-25T03:05:14.583Z,0.00
2022-07-25T03:10:14.681Z,0.00
2022-07-25T03:15:14.787Z,0.00
2022-07-25T03:20:14.957Z,0.00
2022-07-25T03:25:15.355Z,0.00
2022-07-25T03:30:16.090Z,0.00
2022-07-25T03:35:15.123Z,0.00
2022-07-25T03:40:15.243Z,0.00
2022-07-25T03:45:15.350Z,0.00
2022-07-25T03:50:15.419Z,0.00
2022-07-25T03:55:15.504Z,5.62
2022-07-25T04:00:15.603Z,5.62
2022-07-25T04:05:15.637Z,5.62
2022-07-25T04:10:15.802Z,11.25
2022-07-25T04:15:23.372Z,11.25
2022-07-25T04:20:15.920Z,16.88
2022-07-25T04:25:16.024Z,16.88
2022-07-25T04:30:24.456Z,16.88
2022-07-25T04:35:17.332Z,22.50
2022-07-25T04:40:16.287Z,22.50
2022-07-25T04:45:17.806Z,28.12
2022-07-25T04:50:16.503Z,28.12
2022-07-25T04:55:16.647Z,33.75
2022-07-25T05:00:16.699Z,33.75
2022-07-25T05:05:21.586Z,39.38
2022-07-25T05:10:17.834Z,39.38
2022-07-25T05:15:16.963Z,45.00
2022-07-25T05:20:17.740Z,45.00
2022-07-25T05:25:17.109Z,50.62
2022-07-25T05:30:17.189Z,50.62
2022-07-25T05:35:17.270Z,56.25
2022-07-25T05:40:17.375Z,56.25
2022-07-25T05:45:17.456Z,61.88
2022-07-25T05:50:17.560Z,61.88
2022-07-25T05:55:17.629Z,67.50
2022-07-25T06:00:17.713Z,73.12
2022-07-25T06:05:17.807Z,73.12
2022-07-25T06:10:17.885Z,84.38
2022-07-25T06:15:22.916Z,106.88
2022-07-25T06:20:19.126Z,112.50
2022-07-25T06:25:18.159Z,118.12
2022-07-25T06:30:20.612Z,151.88
2022-07-25T06:35:18.348Z,798.75
2022-07-25T06:40:18.468Z,1243.12
2022-07-25T06:45:18.683Z,1327.50
2022-07-25T06:50:18.675Z,1327.50
2022-07-25T06:55:18.732Z,1389.38
2022-07-25T07:00:18.804Z,2874.38
2022-07-25T07:05:18.862Z,2874.38
2022-07-25T07:10:18.999Z,585.00
2022-07-25T07:15:19.045Z,517.50
2022-07-25T07:20:19.305Z,641.25
2022-07-25T07:25:19.647Z,871.88
2022-07-25T07:30:24.093Z,866.25
2022-07-25T07:35:20.469Z,905.62
2022-07-25T07:40:19.579Z,838.12
2022-07-25T07:45:19.700Z,866.25
2022-07-25T07:50:19.812Z,1080.00
2022-07-25T07:55:19.825Z,995.62
2022-07-25T08:00:19.935Z,596.25
2022-07-25T08:05:20.198Z,601.88
2022-07-25T08:10:20.166Z,236.25
2022-07-25T08:15:20.153Z,326.25
2022-07-25T08:20:37.468Z,528.75
2022-07-25T08:25:21.403Z,990.00
2022-07-25T08:30:20.449Z,860.62
2022-07-25T08:35:20.526Z,1018.12
2022-07-25T08:40:20.653Z,736.88
2022-07-25T08:45:20.709Z,568.12
2022-07-25T08:50:20.760Z,646.88
2022-07-25T08:55:20.893Z,427.50
2022-07-25T09:00:21.008Z,258.75
2022-07-25T09:05:21.145Z,213.75
2022-07-25T09:10:21.229Z,253.12
2022-07-25T09:15:21.278Z,275.62
2022-07-25T09:20:21.355Z,264.38
2022-07-25T09:25:21.400Z,337.50
2022-07-25T09:30:21.542Z,208.12
2022-07-25T09:35:21.654Z,208.12
2022-07-25T09:40:21.704Z,326.25
2022-07-25T09:45:21.740Z,354.38
2022-07-25T09:50:21.855Z,309.38
2022-07-25T09:55:21.965Z,196.88
2022-07-25T10:00:22.077Z,168.75
2022-07-25T10:05:22.183Z,180.00
2022-07-25T10:10:22.234Z,236.25
2022-07-25T10:15:22.297Z,371.25
2022-07-25T10:20:22.434Z,320.62
2022-07-25T10:25:22.513Z,196.88
2022-07-25T10:30:22.613Z,185.62
2022-07-25T10:35:22.723Z,174.38
2022-07-25T10:40:22.847Z,140.62
2022-07-25T10:45:22.908Z,478.12
2022-07-25T10:50:40.412Z,146.25
2022-07-25T10:55:24.057Z,101.25
2022-07-25T11:00:23.152Z,56.25
2022-07-25T11:05:23.272Z,45.00
2022-07-25T11:10:23.419Z,61.88
2022-07-25T11:15:23.449Z,84.38
2022-07-25T11:20:23.793Z,61.88
2022-07-25T11:25:23.635Z,67.50
2022-07-25T11:30:23.707Z,118.12
2022-07-25T11:35:23.882Z,95.62
2022-07-25T11:40:23.953Z,61.88
2022-07-25T11:45:23.976Z,45.00
2022-07-25T11:50:24.058Z,50.62
2022-07-25T11:55:24.164Z,84.38
2022-07-25T12:00:24.252Z,106.88
2022-07-25T12:05:24.331Z,123.75
2022-07-25T12:10:24.434Z,118.12
2022-07-25T12:15:24.542Z,112.50
2022-07-25T12:20:24.663Z,174.38
2022-07-25T12:25:30.468Z,219.38
2022-07-25T12:30:25.858Z,202.50
2022-07-25T12:35:24.995Z,275.62
2022-07-25T12:40:25.067Z,129.38
2022-07-25T12:45:25.189Z,157.50
2022-07-25T12:50:25.267Z,292.50
2022-07-25T12:55:25.390Z,388.12
2022-07-25T13:00:25.494Z,320.62
2022-07-25T13:05:25.564Z,326.25
2022-07-25T13:10:25.665Z,180.00
2022-07-25T13:15:25.798Z,219.38
2022-07-25T13:20:25.887Z,174.38
2022-07-25T13:25:25.987Z,236.25
2022-07-25T13:30:26.089Z,151.88
2022-07-25T13:35:32.673Z,168.75
2022-07-25T13:40:27.276Z,129.38
2022-07-25T13:45:26.406Z,129.38
2022-07-25T13:50:26.453Z,129.38
2022-07-25T13:55:26.589Z,157.50
2022-07-25T14:00:26.677Z,180.00
2022-07-25T14:05:26.797Z,191.25
2022-07-25T14:10:26.904Z,185.62
2022-07-25T14:15:27.011Z,230.62
2022-07-25T14:20:27.135Z,118.12
2022-07-25T14:25:27.215Z,95.62
2022-07-25T14:30:27.263Z,90.00
2022-07-25T14:35:32.155Z,106.88
2022-07-25T14:40:28.384Z,84.38
2022-07-25T14:45:27.493Z,67.50
2022-07-25T14:50:27.548Z,61.88
2022-07-25T14:55:27.659Z,73.12
2022-07-25T15:00:29.660Z,95.62
2022-07-25T15:05:27.851Z,118.12
2022-07-25T15:10:27.948Z,90.00
2022-07-25T15:15:28.035Z,67.50
2022-07-25T15:20:28.188Z,50.62
2022-07-25T15:26:00.011Z,50.62
2022-07-25T15:30:29.624Z,78.75
2022-07-25T15:35:28.442Z,163.12
2022-07-25T15:40:28.531Z,202.50
2022-07-25T15:45:33.314Z,135.00
2022-07-25T15:50:29.719Z,129.38
2022-07-25T15:55:28.795Z,101.25
2022-07-25T16:00:29.830Z,118.12
2022-07-25T16:05:29.006Z,90.00
2022-07-25T16:10:29.095Z,78.75
2022-07-25T16:15:29.150Z,61.88
2022-07-25T16:20:29.202Z,67.50
2022-07-25T16:25:29.523Z,73.12
2022-07-25T16:30:29.377Z,73.12
2022-07-25T16:35:29.475Z,78.75
2022-07-25T16:40:30.957Z,90.00
2022-07-25T16:45:29.650Z,67.50
2022-07-25T16:50:29.736Z,61.88
2022-07-25T16:55:29.824Z,33.75
2022-07-25T17:00:29.935Z,39.38
2022-07-25T17:05:30.026Z,28.12
2022-07-25T17:10:30.122Z,33.75
2022-07-25T17:15:30.277Z,39.38
2022-07-25T17:20:30.290Z,33.75
2022-07-25T17:25:30.387Z,28.12
2022-07-25T17:30:30.506Z,22.50
2022-07-25T17:35:30.572Z,28.12
2022-07-25T17:40:30.651Z,28.12
2022-07-25T17:45:30.757Z,28.12
2022-07-25T17:50:30.874Z,33.75
2022-07-25T17:55:33.256Z,33.75
2022-07-25T18:00:32.627Z,33.75
2022-07-25T18:05:31.129Z,33.75
2022-07-25T18:10:31.290Z,28.12
2022-07-25T18:15:31.393Z,28.12
2022-07-25T18:20:31.442Z,28.12
2022-07-25T18:25:32.172Z,22.50
2022-07-25T18:30:31.619Z,28.12
2022-07-25T18:35:31.709Z,22.50
2022-07-25T18:40:31.754Z,22.50
2022-07-25T18:45:31.859Z,16.88
2022-07-25T18:50:31.939Z,16.88
2022-07-25T18:55:32.002Z,16.88
2022-07-25T19:00:32.109Z,11.25
2022-07-25T19:05:32.267Z,11.25
2022-07-25T19:10:32.255Z,5.62
2022-07-25T19:15:32.439Z,5.62
2022-07-25T19:20:32.420Z,0.00
2022-07-25T19:25:32.518Z,0.00
2022-07-25T19:30:32.628Z,0.00
2022-07-25T19:35:32.715Z,0.00
2022-07-25T19:40:32.821Z,0.00
2022-07-25T19:45:32.891Z,0.00
2022-07-25T19:50:32.971Z,0.00
2022-07-25T19:55:33.104Z,0.00
2022-07-25T20:00:33.104Z,0.00
2022-07-25T20:05:33.227Z,0.00
2022-07-25T20:10:33.408Z,0.00
2022-07-25T20:15:33.401Z,0.00
2022-07-25T20:20:33.517Z,0.00
2022-07-25T20:25:33.651Z,0.00
2022-07-25T20:30:35.062Z,0.00
2022-07-25T20:35:34.228Z,0.00
2022-07-25T20:40:33.937Z,0.00
2022-07-25T20:45:34.094Z,0.00
2022-07-25T20:50:34.160Z,0.00
2022-07-25T20:55:34.292Z,0.00
2022-07-25T21:00:34.391Z,0.00
2022-07-25T21:05:34.461Z,0.00
2022-07-25T21:10:34.556Z,0.00
2022-07-25T21:15:34.698Z,0.00
2022-07-25T21:20:34.738Z,0.00
2022-07-25T21:25:34.849Z,0.00
2022-07-25T21:30:34.960Z,0.00
2022-07-25T21:35:50.518Z,0.00
2022-07-25T21:40:36.154Z,0.00
2022-07-25T21:45:35.265Z,0.00
2022-07-25T21:50:35.345Z,0.00
2022-07-25T21:55:36.428Z,0.00
2022-07-25T22:00:40.026Z,0.00
2022-07-25T22:05:36.594Z,0.00
2022-07-25T22:10:35.711Z,0.00
2022-07-25T22:15:35.838Z,0.00
2022-07-25T22:20:35.927Z,0.00
2022-07-25T22:25:36.039Z,0.00
2022-07-25T22:30:36.124Z,0.00
2022-07-25T22:35:36.206Z,0.00
2022-07-25T22:40:36.307Z,0.00
2022-07-25T22:45:41.213Z,0.00
2022-07-25T22:50:37.524Z,0.00
2022-07-25T22:55:36.610Z,0.00
2022-07-25T23:00:36.730Z,0.00
2022-07-25T23:05:40.446Z,0.00
2022-07-25T23:10:36.917Z,0.00
2022-07-25T23:15:49.960Z,0.00
2022-07-25T23:20:38.097Z,0.00
2022-07-25T23:25:37.178Z,0.00
2022-07-25T23:30:40.518Z,0.00
2022-07-25T23:35:37.345Z,0.00
2022-07-25T23:40:37.456Z,0.00
2022-07-25T23:45:37.567Z,0.00
2022-07-25T23:50:37.678Z,0.00
2022-07-25T23:55:37.773Z,0.00
